sensor_id;sensor_type;location;lat;lon;timestamp;temperature;humidity
48728;DHT22;34527;45.618;5.130;2022-12-29T00:01:30;10.60;99.90
48728;DHT22;34527;45.618;5.130;2022-12-29T00:03:56;10.60;99.90
48728;DHT22;34527;45.618;5.130;2022-12-29T00:06:21;10.50;99.90
48728;DHT22;34527;45.618;5.130;2022-12-29T00:08:47;10.50;99.90
48728;DHT22;34527;45.618;5.130;2022-12-29T00:11:19;10.60;99.90
48728;DHT22;34527;45.618;5.130;2022-12-29T00:13:45;10.60;99.90
48728;DHT22;34527;45.618;5.130;2022-12-29T00:16:31;10.60;99.90
48728;DHT22;34527;45.618;5.130;2022-12-29T00:18:57;10.60;99.90
48728;DHT22;34527;45.618;5.130;2022-12-29T00:21:24;10.70;99.90
48728;DHT22;34527;45.618;5.130;2022-12-29T00:24:17;10.70;99.90
48728;DHT22;34527;45.618;5.130;2022-12-29T00:29:46;10.70;99.90
48728;DHT22;34527;45.618;5.130;2022-12-29T00:32:30;10.70;99.90
48728;DHT22;34527;45.618;5.130;2022-12-29T00:35:23;10.70;99.90
48728;DHT22;34527;45.618;5.130;2022-12-29T00:37:50;10.70;99.90
48728;DHT22;34527;45.618;5.130;2022-12-29T00:40:35;10.70;99.90
48728;DHT22;34527;45.618;5.130;2022-12-29T00:43:19;10.60;99.90
48728;DHT22;34527;45.618;5.130;2022-12-29T00:46:04;10.70;99.90
48728;DHT22;34527;45.618;5.130;2022-12-29T00:48:29;10.70;99.90
48728;DHT22;34527;45.618;5.130;2022-12-29T00:51:14;10.70;99.90
48728;DHT22;34527;45.618;5.130;2022-12-29T00:53:40;10.60;99.90
48728;DHT22;34527;45.618;5.130;2022-12-29T00:56:06;10.70;99.90
48728;DHT22;34527;45.618;5.130;2022-12-29T00:58:31;10.70;99.90
48728;DHT22;34527;45.618;5.130;2022-12-29T01:01:02;10.70;99.90
48728;DHT22;34527;45.618;5.130;2022-12-29T01:03:28;10.70;99.90
48728;DHT22;34527;45.618;5.130;2022-12-29T01:05:53;10.70;99.90
48728;DHT22;34527;45.618;5.130;2022-12-29T01:08:19;10.70;99.90
48728;DHT22;34527;45.618;5.130;2022-12-29T01:10:45;10.70;99.90
48728;DHT22;34527;45.618;5.130;2022-12-29T01:13:11;10.70;99.90
48728;DHT22;34527;45.618;5.130;2022-12-29T01:15:37;10.70;99.90
48728;DHT22;34527;45.618;5.130;2022-12-29T01:18:03;10.60;99.90
48728;DHT22;34527;45.618;5.130;2022-12-29T01:20:28;10.60;99.90
48728;DHT22;34527;45.618;5.130;2022-12-29T01:22:54;10.70;99.90
48728;DHT22;34527;45.618;5.130;2022-12-29T01:25:20;10.70;99.90
48728;DHT22;34527;45.618;5.130;2022-12-29T01:27:46;10.60;99.90
48728;DHT22;34527;45.618;5.130;2022-12-29T01:30:12;10.70;99.90
48728;DHT22;34527;45.618;5.130;2022-12-29T01:32:38;10.70;99.90
48728;DHT22;34527;45.618;5.130;2022-12-29T01:35:04;10.70;99.90
48728;DHT22;34527;45.618;5.130;2022-12-29T01:37:30;10.70;99.90
48728;DHT22;34527;45.618;5.130;2022-12-29T01:39:56;10.70;99.90
48728;DHT22;34527;45.618;5.130;2022-12-29T01:42:24;10.60;99.90
48728;DHT22;34527;45.618;5.130;2022-12-29T01:45:01;10.60;99.90
48728;DHT22;34527;45.618;5.130;2022-12-29T01:49:55;10.70;99.90
48728;DHT22;34527;45.618;5.130;2022-12-29T01:52:23;10.70;99.90
48728;DHT22;34527;45.618;5.130;2022-12-29T01:54:52;10.70;99.90
48728;DHT22;34527;45.618;5.130;2022-12-29T01:57:25;10.70;99.90
48728;DHT22;34527;45.618;5.130;2022-12-29T02:00:00;10.70;99.90
48728;DHT22;34527;45.618;5.130;2022-12-29T02:02:27;10.70;99.90
48728;DHT22;34527;45.618;5.130;2022-12-29T02:04:53;10.70;99.90
48728;DHT22;34527;45.618;5.130;2022-12-29T02:07:24;10.70;99.90
48728;DHT22;34527;45.618;5.130;2022-12-29T02:09:53;10.70;99.90
48728;DHT22;34527;45.618;5.130;2022-12-29T02:12:20;10.70;99.90
48728;DHT22;34527;45.618;5.130;2022-12-29T02:14:50;10.70;99.90
48728;DHT22;34527;45.618;5.130;2022-12-29T02:31:39;10.40;99.90
48728;DHT22;34527;45.618;5.130;2022-12-29T02:42:51;10.20;99.90
48728;DHT22;34527;45.618;5.130;2022-12-29T02:48:15;10.10;99.90
48728;DHT22;34527;45.618;5.130;2022-12-29T02:51:00;10.10;99.90
48728;DHT22;34527;45.618;5.130;2022-12-29T02:53:28;10.10;99.90
48728;DHT22;34527;45.618;5.130;2022-12-29T02:56:14;10.10;99.90
48728;DHT22;34527;45.618;5.130;2022-12-29T02:58:39;10.10;99.90
48728;DHT22;34527;45.618;5.130;2022-12-29T03:01:11;10.10;99.90
48728;DHT22;34527;45.618;5.130;2022-12-29T03:06:50;10.20;99.90
48728;DHT22;34527;45.618;5.130;2022-12-29T03:12:06;10.20;99.90
48728;DHT22;34527;45.618;5.130;2022-12-29T03:14:39;10.20;99.90
48728;DHT22;34527;45.618;5.130;2022-12-29T03:17:33;10.20;99.90
48728;DHT22;34527;45.618;5.130;2022-12-29T03:20:17;10.20;99.90
48728;DHT22;34527;45.618;5.130;2022-12-29T03:22:48;10.20;99.90
48728;DHT22;34527;45.618;5.130;2022-12-29T03:25:22;10.20;99.90
48728;DHT22;34527;45.618;5.130;2022-12-29T03:27:56;10.20;99.90
48728;DHT22;34527;45.618;5.130;2022-12-29T03:30:23;10.20;99.90
48728;DHT22;34527;45.618;5.130;2022-12-29T03:32:53;10.20;99.90
48728;DHT22;34527;45.618;5.130;2022-12-29T03:35:22;10.20;99.90
48728;DHT22;34527;45.618;5.130;2022-12-29T03:37:59;10.30;99.90
48728;DHT22;34527;45.618;5.130;2022-12-29T03:40:28;10.30;99.90
48728;DHT22;34527;45.618;5.130;2022-12-29T03:42:56;10.30;99.90
48728;DHT22;34527;45.618;5.130;2022-12-29T03:45:22;10.30;99.90
48728;DHT22;34527;45.618;5.130;2022-12-29T03:47:48;10.30;99.90
48728;DHT22;34527;45.618;5.130;2022-12-29T03:50:14;10.30;99.90
48728;DHT22;34527;45.618;5.130;2022-12-29T03:52:40;10.40;99.90
48728;DHT22;34527;45.618;5.130;2022-12-29T03:55:06;10.30;99.90
48728;DHT22;34527;45.618;5.130;2022-12-29T03:57:32;10.40;99.90
48728;DHT22;34527;45.618;5.130;2022-12-29T03:59:58;10.40;99.90
48728;DHT22;34527;45.618;5.130;2022-12-29T04:02:24;10.40;99.90
48728;DHT22;34527;45.618;5.130;2022-12-29T04:04:49;10.40;99.90
48728;DHT22;34527;45.618;5.130;2022-12-29T04:07:15;10.40;99.90
48728;DHT22;34527;45.618;5.130;2022-12-29T04:09:41;10.50;99.90
48728;DHT22;34527;45.618;5.130;2022-12-29T04:12:07;10.50;99.90
48728;DHT22;34527;45.618;5.130;2022-12-29T04:14:33;10.50;99.90
48728;DHT22;34527;45.618;5.130;2022-12-29T04:16:59;10.50;99.90
48728;DHT22;34527;45.618;5.130;2022-12-29T04:19:24;10.50;99.90
48728;DHT22;34527;45.618;5.130;2022-12-29T04:21:50;10.50;99.90
48728;DHT22;34527;45.618;5.130;2022-12-29T04:24:16;10.50;99.90
48728;DHT22;34527;45.618;5.130;2022-12-29T04:26:42;10.50;99.90
48728;DHT22;34527;45.618;5.130;2022-12-29T04:29:08;10.50;99.90
48728;DHT22;34527;45.618;5.130;2022-12-29T04:31:34;10.60;99.90
48728;DHT22;34527;45.618;5.130;2022-12-29T04:34:00;10.60;99.90
48728;DHT22;34527;45.618;5.130;2022-12-29T04:36:26;10.60;99.90
48728;DHT22;34527;45.618;5.130;2022-12-29T04:38:52;10.60;99.90
48728;DHT22;34527;45.618;5.130;2022-12-29T04:41:17;10.60;99.90
48728;DHT22;34527;45.618;5.130;2022-12-29T04:43:44;10.60;99.90
48728;DHT22;34527;45.618;5.130;2022-12-29T04:46:09;10.60;99.90
48728;DHT22;34527;45.618;5.130;2022-12-29T04:48:35;10.60;99.90
48728;DHT22;34527;45.618;5.130;2022-12-29T04:51:01;10.60;99.90
48728;DHT22;34527;45.618;5.130;2022-12-29T04:53:27;10.60;99.90
48728;DHT22;34527;45.618;5.130;2022-12-29T04:55:53;10.60;99.90
48728;DHT22;34527;45.618;5.130;2022-12-29T04:58:20;10.60;99.90
48728;DHT22;34527;45.618;5.130;2022-12-29T05:00:46;10.50;99.90
48728;DHT22;34527;45.618;5.130;2022-12-29T05:03:12;10.60;99.90
48728;DHT22;34527;45.618;5.130;2022-12-29T05:05:38;10.50;99.90
48728;DHT22;34527;45.618;5.130;2022-12-29T05:08:04;10.50;99.90
48728;DHT22;34527;45.618;5.130;2022-12-29T05:10:30;10.50;99.90
48728;DHT22;34527;45.618;5.130;2022-12-29T05:12:55;10.50;99.90
48728;DHT22;34527;45.618;5.130;2022-12-29T05:15:23;10.50;99.90
48728;DHT22;34527;45.618;5.130;2022-12-29T05:17:48;10.40;99.90
48728;DHT22;34527;45.618;5.130;2022-12-29T05:20:14;10.40;99.90
48728;DHT22;34527;45.618;5.130;2022-12-29T05:22:40;10.40;99.90
48728;DHT22;34527;45.618;5.130;2022-12-29T05:25:07;10.40;99.90
48728;DHT22;34527;45.618;5.130;2022-12-29T05:27:32;10.40;99.90
48728;DHT22;34527;45.618;5.130;2022-12-29T05:29:58;10.50;99.90
48728;DHT22;34527;45.618;5.130;2022-12-29T05:32:24;10.50;99.90
48728;DHT22;34527;45.618;5.130;2022-12-29T05:34:50;10.50;99.90
48728;DHT22;34527;45.618;5.130;2022-12-29T05:37:16;10.50;99.90
48728;DHT22;34527;45.618;5.130;2022-12-29T05:39:42;10.50;99.90
48728;DHT22;34527;45.618;5.130;2022-12-29T05:42:08;10.40;99.90
48728;DHT22;34527;45.618;5.130;2022-12-29T05:44:34;10.40;99.90
48728;DHT22;34527;45.618;5.130;2022-12-29T05:47:00;10.40;99.90
48728;DHT22;34527;45.618;5.130;2022-12-29T05:49:25;10.40;99.90
48728;DHT22;34527;45.618;5.130;2022-12-29T05:51:51;10.40;99.90
48728;DHT22;34527;45.618;5.130;2022-12-29T05:54:17;10.40;99.90
48728;DHT22;34527;45.618;5.130;2022-12-29T05:56:43;10.40;99.90
48728;DHT22;34527;45.618;5.130;2022-12-29T05:59:09;10.40;99.90
48728;DHT22;34527;45.618;5.130;2022-12-29T06:01:35;10.40;99.90
48728;DHT22;34527;45.618;5.130;2022-12-29T06:04:00;10.40;99.90
48728;DHT22;34527;45.618;5.130;2022-12-29T06:06:27;10.40;99.90
48728;DHT22;34527;45.618;5.130;2022-12-29T06:08:52;10.40;99.90
48728;DHT22;34527;45.618;5.130;2022-12-29T06:11:18;10.40;99.90
48728;DHT22;34527;45.618;5.130;2022-12-29T06:13:44;10.50;99.90
48728;DHT22;34527;45.618;5.130;2022-12-29T06:16:10;10.50;99.90
48728;DHT22;34527;45.618;5.130;2022-12-29T06:18:36;10.50;99.90
48728;DHT22;34527;45.618;5.130;2022-12-29T06:21:04;10.50;99.90
48728;DHT22;34527;45.618;5.130;2022-12-29T06:23:30;10.50;99.90
48728;DHT22;34527;45.618;5.130;2022-12-29T06:25:56;10.50;99.90
48728;DHT22;34527;45.618;5.130;2022-12-29T06:28:23;10.50;99.90
48728;DHT22;34527;45.618;5.130;2022-12-29T06:30:49;10.50;99.90
48728;DHT22;34527;45.618;5.130;2022-12-29T06:33:15;10.40;99.90
48728;DHT22;34527;45.618;5.130;2022-12-29T06:35:44;10.40;99.90
48728;DHT22;34527;45.618;5.130;2022-12-29T06:38:11;10.40;99.90
48728;DHT22;34527;45.618;5.130;2022-12-29T06:40:37;10.40;99.90
48728;DHT22;34527;45.618;5.130;2022-12-29T06:43:03;10.30;99.90
48728;DHT22;34527;45.618;5.130;2022-12-29T06:45:29;10.30;99.90
48728;DHT22;34527;45.618;5.130;2022-12-29T06:47:55;10.30;99.90
48728;DHT22;34527;45.618;5.130;2022-12-29T06:50:21;10.30;99.90
48728;DHT22;34527;45.618;5.130;2022-12-29T06:52:46;10.30;99.90
48728;DHT22;34527;45.618;5.130;2022-12-29T06:55:12;10.30;99.90
48728;DHT22;34527;45.618;5.130;2022-12-29T06:57:38;10.20;99.90
48728;DHT22;34527;45.618;5.130;2022-12-29T07:00:04;10.20;99.90
48728;DHT22;34527;45.618;5.130;2022-12-29T07:02:30;10.30;99.90
48728;DHT22;34527;45.618;5.130;2022-12-29T07:04:56;10.20;99.90
48728;DHT22;34527;45.618;5.130;2022-12-29T07:07:22;10.30;99.90
48728;DHT22;34527;45.618;5.130;2022-12-29T07:09:48;10.20;99.90
48728;DHT22;34527;45.618;5.130;2022-12-29T07:12:14;10.30;99.90
48728;DHT22;34527;45.618;5.130;2022-12-29T07:14:40;10.30;99.90
48728;DHT22;34527;45.618;5.130;2022-12-29T07:17:06;10.30;99.90
48728;DHT22;34527;45.618;5.130;2022-12-29T07:19:33;10.30;99.90
48728;DHT22;34527;45.618;5.130;2022-12-29T07:21:59;10.40;99.90
48728;DHT22;34527;45.618;5.130;2022-12-29T07:24:25;10.40;99.90
48728;DHT22;34527;45.618;5.130;2022-12-29T07:26:55;10.40;99.90
48728;DHT22;34527;45.618;5.130;2022-12-29T07:29:21;10.40;99.90
48728;DHT22;34527;45.618;5.130;2022-12-29T07:31:46;10.40;99.90
48728;DHT22;34527;45.618;5.130;2022-12-29T07:34:12;10.50;99.90
48728;DHT22;34527;45.618;5.130;2022-12-29T07:36:38;10.50;99.90
48728;DHT22;34527;45.618;5.130;2022-12-29T07:39:04;10.50;99.90
48728;DHT22;34527;45.618;5.130;2022-12-29T07:41:30;10.50;99.90
48728;DHT22;34527;45.618;5.130;2022-12-29T07:43:56;10.60;99.90
48728;DHT22;34527;45.618;5.130;2022-12-29T07:46:21;10.60;99.90
48728;DHT22;34527;45.618;5.130;2022-12-29T07:48:47;10.60;99.90
48728;DHT22;34527;45.618;5.130;2022-12-29T07:51:13;10.60;99.90
48728;DHT22;34527;45.618;5.130;2022-12-29T07:53:39;10.70;99.90
48728;DHT22;34527;45.618;5.130;2022-12-29T07:56:05;10.70;99.90
48728;DHT22;34527;45.618;5.130;2022-12-29T07:58:31;10.70;99.90
48728;DHT22;34527;45.618;5.130;2022-12-29T08:00:57;10.70;99.90
48728;DHT22;34527;45.618;5.130;2022-12-29T08:03:23;10.80;99.90
48728;DHT22;34527;45.618;5.130;2022-12-29T08:05:52;10.80;99.90
48728;DHT22;34527;45.618;5.130;2022-12-29T08:08:18;10.90;99.90
48728;DHT22;34527;45.618;5.130;2022-12-29T08:10:45;10.90;99.90
48728;DHT22;34527;45.618;5.130;2022-12-29T08:13:11;10.90;99.90
48728;DHT22;34527;45.618;5.130;2022-12-29T08:15:38;11.00;99.90
48728;DHT22;34527;45.618;5.130;2022-12-29T08:18:04;11.00;99.90
48728;DHT22;34527;45.618;5.130;2022-12-29T08:20:30;11.10;99.90
48728;DHT22;34527;45.618;5.130;2022-12-29T08:22:56;11.10;99.90
48728;DHT22;34527;45.618;5.130;2022-12-29T08:25:22;11.10;99.90
48728;DHT22;34527;45.618;5.130;2022-12-29T08:27:47;11.20;99.90
48728;DHT22;34527;45.618;5.130;2022-12-29T08:30:13;11.20;99.90
48728;DHT22;34527;45.618;5.130;2022-12-29T08:32:39;11.20;99.90
48728;DHT22;34527;45.618;5.130;2022-12-29T08:35:05;11.20;99.90
48728;DHT22;34527;45.618;5.130;2022-12-29T08:37:33;11.20;99.90
48728;DHT22;34527;45.618;5.130;2022-12-29T08:39:59;11.20;99.90
48728;DHT22;34527;45.618;5.130;2022-12-29T08:42:29;11.30;99.90
48728;DHT22;34527;45.618;5.130;2022-12-29T08:45:00;11.40;99.90
48728;DHT22;34527;45.618;5.130;2022-12-29T08:47:26;11.50;99.90
48728;DHT22;34527;45.618;5.130;2022-12-29T08:49:52;11.60;99.90
48728;DHT22;34527;45.618;5.130;2022-12-29T08:52:18;11.70;99.90
48728;DHT22;34527;45.618;5.130;2022-12-29T08:54:44;11.80;99.90
48728;DHT22;34527;45.618;5.130;2022-12-29T08:57:10;12.00;99.90
48728;DHT22;34527;45.618;5.130;2022-12-29T08:59:36;12.00;99.90
48728;DHT22;34527;45.618;5.130;2022-12-29T09:02:05;12.00;99.90
48728;DHT22;34527;45.618;5.130;2022-12-29T09:04:36;12.00;99.90
48728;DHT22;34527;45.618;5.130;2022-12-29T09:07:02;12.10;99.90
48728;DHT22;34527;45.618;5.130;2022-12-29T09:09:28;12.10;99.90
48728;DHT22;34527;45.618;5.130;2022-12-29T09:11:59;12.20;99.90
48728;DHT22;34527;45.618;5.130;2022-12-29T09:14:28;12.20;99.90
48728;DHT22;34527;45.618;5.130;2022-12-29T09:16:54;12.40;99.90
48728;DHT22;34527;45.618;5.130;2022-12-29T09:19:38;12.50;99.90
48728;DHT22;34527;45.618;5.130;2022-12-29T09:22:04;12.60;99.90
48728;DHT22;34527;45.618;5.130;2022-12-29T09:24:30;12.70;99.90
48728;DHT22;34527;45.618;5.130;2022-12-29T09:26:56;12.80;99.90
48728;DHT22;34527;45.618;5.130;2022-12-29T09:29:22;12.80;99.90
48728;DHT22;34527;45.618;5.130;2022-12-29T09:31:48;12.90;99.90
48728;DHT22;34527;45.618;5.130;2022-12-29T09:34:14;12.80;99.90
48728;DHT22;34527;45.618;5.130;2022-12-29T09:36:41;12.80;99.90
48728;DHT22;34527;45.618;5.130;2022-12-29T09:39:07;12.90;99.90
48728;DHT22;34527;45.618;5.130;2022-12-29T09:41:40;13.00;99.90
48728;DHT22;34527;45.618;5.130;2022-12-29T09:44:29;13.10;99.90
48728;DHT22;34527;45.618;5.130;2022-12-29T09:46:58;13.20;99.90
48728;DHT22;34527;45.618;5.130;2022-12-29T09:52:08;13.30;99.90
48728;DHT22;34527;45.618;5.130;2022-12-29T09:54:41;13.40;99.90
48728;DHT22;34527;45.618;5.130;2022-12-29T09:59:50;13.50;99.90
48728;DHT22;34527;45.618;5.130;2022-12-29T10:02:27;13.50;99.90
48728;DHT22;34527;45.618;5.130;2022-12-29T10:04:55;13.50;99.90
48728;DHT22;34527;45.618;5.130;2022-12-29T10:24:10;13.50;99.90
48728;DHT22;34527;45.618;5.130;2022-12-29T10:26:42;13.60;99.90
48728;DHT22;34527;45.618;5.130;2022-12-29T10:31:50;13.60;99.90
48728;DHT22;34527;45.618;5.130;2022-12-29T10:34:44;13.70;99.90
48728;DHT22;34527;45.618;5.130;2022-12-29T10:39:51;13.70;99.90
48728;DHT22;34527;45.618;5.130;2022-12-29T10:44:56;13.70;99.90
48728;DHT22;34527;45.618;5.130;2022-12-29T10:47:29;13.80;99.90
48728;DHT22;34527;45.618;5.130;2022-12-29T10:49:55;13.70;99.90
48728;DHT22;34527;45.618;5.130;2022-12-29T10:52:25;13.70;99.90
48728;DHT22;34527;45.618;5.130;2022-12-29T10:59:57;13.80;99.90
48728;DHT22;34527;45.618;5.130;2022-12-29T11:04:57;13.70;99.90
48728;DHT22;34527;45.618;5.130;2022-12-29T11:07:24;13.70;99.90
48728;DHT22;34527;45.618;5.130;2022-12-29T11:09:51;13.60;99.90
48728;DHT22;34527;45.618;5.130;2022-12-29T11:12:29;13.60;99.90
48728;DHT22;34527;45.618;5.130;2022-12-29T11:22:54;13.60;99.90
48728;DHT22;34527;45.618;5.130;2022-12-29T11:25:19;13.60;99.90
48728;DHT22;34527;45.618;5.130;2022-12-29T11:28:13;13.70;99.90
48728;DHT22;34527;45.618;5.130;2022-12-29T11:30:40;13.70;99.90
48728;DHT22;34527;45.618;5.130;2022-12-29T11:33:06;13.70;99.90
48728;DHT22;34527;45.618;5.130;2022-12-29T11:35:35;13.80;99.90
48728;DHT22;34527;45.618;5.130;2022-12-29T11:38:03;13.80;99.90
48728;DHT22;34527;45.618;5.130;2022-12-29T11:40:29;13.80;99.90
48728;DHT22;34527;45.618;5.130;2022-12-29T11:43:00;13.80;99.90
48728;DHT22;34527;45.618;5.130;2022-12-29T11:45:34;13.80;99.90
48728;DHT22;34527;45.618;5.130;2022-12-29T11:48:17;13.80;99.90
48728;DHT22;34527;45.618;5.130;2022-12-29T11:50:50;13.80;99.90
48728;DHT22;34527;45.618;5.130;2022-12-29T11:53:45;13.80;99.90
48728;DHT22;34527;45.618;5.130;2022-12-29T11:56:15;13.80;99.90
48728;DHT22;34527;45.618;5.130;2022-12-29T11:58:41;13.80;99.90
48728;DHT22;34527;45.618;5.130;2022-12-29T12:01:17;13.80;99.90
48728;DHT22;34527;45.618;5.130;2022-12-29T12:04:05;13.90;99.90
48728;DHT22;34527;45.618;5.130;2022-12-29T12:06:38;13.90;99.90
48728;DHT22;34527;45.618;5.130;2022-12-29T12:09:14;13.90;99.90
48728;DHT22;34527;45.618;5.130;2022-12-29T12:11:42;13.90;99.90
48728;DHT22;34527;45.618;5.130;2022-12-29T12:14:23;13.90;99.90
48728;DHT22;34527;45.618;5.130;2022-12-29T12:16:59;13.90;99.90
48728;DHT22;34527;45.618;5.130;2022-12-29T12:22:16;13.80;99.90
48728;DHT22;34527;45.618;5.130;2022-12-29T12:24:54;13.80;99.90
48728;DHT22;34527;45.618;5.130;2022-12-29T12:27:28;13.80;99.90
48728;DHT22;34527;45.618;5.130;2022-12-29T12:30:17;13.80;99.90
48728;DHT22;34527;45.618;5.130;2022-12-29T12:38:49;13.80;99.90
48728;DHT22;34527;45.618;5.130;2022-12-29T12:44:28;13.80;99.90
48728;DHT22;34527;45.618;5.130;2022-12-29T12:58:27;13.90;99.90
48728;DHT22;34527;45.618;5.130;2022-12-29T13:03:44;13.80;99.90
48728;DHT22;34527;45.618;5.130;2022-12-29T13:06:31;13.90;99.90
48728;DHT22;34527;45.618;5.130;2022-12-29T13:09:24;13.90;99.90
48728;DHT22;34527;45.618;5.130;2022-12-29T13:12:25;13.90;99.90
48728;DHT22;34527;45.618;5.130;2022-12-29T13:22:43;13.80;99.90
48728;DHT22;34527;45.618;5.130;2022-12-29T13:25:19;13.80;99.90
48728;DHT22;34527;45.618;5.130;2022-12-29T13:33:39;13.90;99.90
48728;DHT22;34527;45.618;5.130;2022-12-29T13:36:37;13.90;99.90
48728;DHT22;34527;45.618;5.130;2022-12-29T13:39:26;13.80;99.90
48728;DHT22;34527;45.618;5.130;2022-12-29T13:41:55;13.80;99.90
48728;DHT22;34527;45.618;5.130;2022-12-29T13:44:33;13.80;99.90
48728;DHT22;34527;45.618;5.130;2022-12-29T13:47:04;13.80;99.90
48728;DHT22;34527;45.618;5.130;2022-12-29T13:49:33;13.70;99.90
48728;DHT22;34527;45.618;5.130;2022-12-29T13:52:13;13.70;99.90
48728;DHT22;34527;45.618;5.130;2022-12-29T13:54:54;13.60;99.90
48728;DHT22;34527;45.618;5.130;2022-12-29T14:00:23;13.60;99.90
48728;DHT22;34527;45.618;5.130;2022-12-29T14:03:04;13.60;99.90
48728;DHT22;34527;45.618;5.130;2022-12-29T14:05:36;13.50;99.90
48728;DHT22;34527;45.618;5.130;2022-12-29T14:08:04;13.50;99.90
48728;DHT22;34527;45.618;5.130;2022-12-29T14:10:34;13.50;99.90
48728;DHT22;34527;45.618;5.130;2022-12-29T14:13:19;13.50;99.90
48728;DHT22;34527;45.618;5.130;2022-12-29T14:15:54;13.40;99.90
48728;DHT22;34527;45.618;5.130;2022-12-29T14:18:29;13.40;99.90
48728;DHT22;34527;45.618;5.130;2022-12-29T14:23:41;13.30;99.90
48728;DHT22;34527;45.618;5.130;2022-12-29T14:28:57;13.30;99.90
48728;DHT22;34527;45.618;5.130;2022-12-29T14:31:40;13.30;99.90
48728;DHT22;34527;45.618;5.130;2022-12-29T14:36:39;13.20;99.90
48728;DHT22;34527;45.618;5.130;2022-12-29T14:42:20;13.20;99.90
48728;DHT22;34527;45.618;5.130;2022-12-29T14:45:28;13.20;99.90
48728;DHT22;34527;45.618;5.130;2022-12-29T14:47:53;13.20;99.90
48728;DHT22;34527;45.618;5.130;2022-12-29T14:50:25;13.10;99.90
48728;DHT22;34527;45.618;5.130;2022-12-29T14:52:58;13.10;99.90
48728;DHT22;34527;45.618;5.130;2022-12-29T14:55:47;13.10;99.90
48728;DHT22;34527;45.618;5.130;2022-12-29T14:58:57;13.10;99.90
48728;DHT22;34527;45.618;5.130;2022-12-29T15:01:46;13.00;99.90
48728;DHT22;34527;45.618;5.130;2022-12-29T15:04:35;13.00;99.90
48728;DHT22;34527;45.618;5.130;2022-12-29T15:07:02;13.00;99.90
48728;DHT22;34527;45.618;5.130;2022-12-29T15:10:13;13.00;99.90
48728;DHT22;34527;45.618;5.130;2022-12-29T15:12:43;13.00;99.90
48728;DHT22;34527;45.618;5.130;2022-12-29T15:17:44;13.00;99.90
48728;DHT22;34527;45.618;5.130;2022-12-29T15:20:30;13.00;99.90
48728;DHT22;34527;45.618;5.130;2022-12-29T15:23:17;12.90;99.90
48728;DHT22;34527;45.618;5.130;2022-12-29T15:26:09;12.90;99.90
48728;DHT22;34527;45.618;5.130;2022-12-29T15:31:09;12.90;99.90
48728;DHT22;34527;45.618;5.130;2022-12-29T15:33:39;12.90;99.90
48728;DHT22;34527;45.618;5.130;2022-12-29T15:36:11;12.90;99.90
48728;DHT22;34527;45.618;5.130;2022-12-29T15:38:38;12.90;99.90
48728;DHT22;34527;45.618;5.130;2022-12-29T15:41:24;12.90;99.90
48728;DHT22;34527;45.618;5.130;2022-12-29T15:44:17;12.80;99.90
48728;DHT22;34527;45.618;5.130;2022-12-29T15:46:46;12.90;99.90
48728;DHT22;34527;45.618;5.130;2022-12-29T15:49:14;12.90;99.90
48728;DHT22;34527;45.618;5.130;2022-12-29T15:51:40;12.80;99.90
48728;DHT22;34527;45.618;5.130;2022-12-29T15:54:15;12.80;99.90
48728;DHT22;34527;45.618;5.130;2022-12-29T15:56:42;12.80;99.90
48728;DHT22;34527;45.618;5.130;2022-12-29T15:59:30;12.80;99.90
48728;DHT22;34527;45.618;5.130;2022-12-29T16:01:57;12.80;99.90
48728;DHT22;34527;45.618;5.130;2022-12-29T16:04:27;12.80;99.90
48728;DHT22;34527;45.618;5.130;2022-12-29T16:07:04;12.80;99.90
48728;DHT22;34527;45.618;5.130;2022-12-29T16:09:35;12.80;99.90
48728;DHT22;34527;45.618;5.130;2022-12-29T16:12:06;12.70;99.90
48728;DHT22;34527;45.618;5.130;2022-12-29T16:14:41;12.80;99.90
48728;DHT22;34527;45.618;5.130;2022-12-29T16:17:12;12.80;99.90
48728;DHT22;34527;45.618;5.130;2022-12-29T16:19:45;12.70;99.90
48728;DHT22;34527;45.618;5.130;2022-12-29T16:22:30;12.70;99.90
48728;DHT22;34527;45.618;5.130;2022-12-29T16:25:23;12.70;99.90
48728;DHT22;34527;45.618;5.130;2022-12-29T16:27:50;12.70;99.90
48728;DHT22;34527;45.618;5.130;2022-12-29T16:30:20;12.70;99.90
48728;DHT22;34527;45.618;5.130;2022-12-29T16:32:52;12.70;99.90
48728;DHT22;34527;45.618;5.130;2022-12-29T16:35:21;12.70;99.90
48728;DHT22;34527;45.618;5.130;2022-12-29T16:38:06;12.70;99.90
48728;DHT22;34527;45.618;5.130;2022-12-29T16:40:32;12.70;99.90
48728;DHT22;34527;45.618;5.130;2022-12-29T16:43:03;12.70;99.90
48728;DHT22;34527;45.618;5.130;2022-12-29T16:50:40;12.70;99.90
48728;DHT22;34527;45.618;5.130;2022-12-29T16:53:28;12.70;99.90
48728;DHT22;34527;45.618;5.130;2022-12-29T16:55:57;12.70;99.90
48728;DHT22;34527;45.618;5.130;2022-12-29T16:58:28;12.60;99.90
48728;DHT22;34527;45.618;5.130;2022-12-29T17:00:58;12.60;99.90
48728;DHT22;34527;45.618;5.130;2022-12-29T17:03:38;12.60;99.90
48728;DHT22;34527;45.618;5.130;2022-12-29T17:06:05;12.60;99.90
48728;DHT22;34527;45.618;5.130;2022-12-29T17:08:41;12.60;99.90
48728;DHT22;34527;45.618;5.130;2022-12-29T17:11:28;12.50;99.90
48728;DHT22;34527;45.618;5.130;2022-12-29T17:17:21;11.70;99.90
48728;DHT22;34527;45.618;5.130;2022-12-29T17:19:56;11.40;99.90
48728;DHT22;34527;45.618;5.130;2022-12-29T17:22:28;11.10;99.90
48728;DHT22;34527;45.618;5.130;2022-12-29T17:24:57;10.90;99.90
48728;DHT22;34527;45.618;5.130;2022-12-29T17:27:36;10.70;99.90
48728;DHT22;34527;45.618;5.130;2022-12-29T17:30:09;10.40;99.90
48728;DHT22;34527;45.618;5.130;2022-12-29T17:32:35;10.30;99.90
48728;DHT22;34527;45.618;5.130;2022-12-29T17:35:01;10.20;99.90
48728;DHT22;34527;45.618;5.130;2022-12-29T17:37:36;10.00;99.90
48728;DHT22;34527;45.618;5.130;2022-12-29T17:40:04;9.90;99.90
48728;DHT22;34527;45.618;5.130;2022-12-29T17:42:31;9.90;99.90
48728;DHT22;34527;45.618;5.130;2022-12-29T17:44:59;9.80;99.90
48728;DHT22;34527;45.618;5.130;2022-12-29T17:47:25;9.80;99.90
48728;DHT22;34527;45.618;5.130;2022-12-29T17:49:51;9.70;99.90
48728;DHT22;34527;45.618;5.130;2022-12-29T17:52:18;9.70;99.90
48728;DHT22;34527;45.618;5.130;2022-12-29T17:54:50;9.70;99.90
48728;DHT22;34527;45.618;5.130;2022-12-29T17:57:18;9.70;99.90
48728;DHT22;34527;45.618;5.130;2022-12-29T17:59:44;9.70;99.90
48728;DHT22;34527;45.618;5.130;2022-12-29T18:02:26;9.80;99.90
48728;DHT22;34527;45.618;5.130;2022-12-29T18:04:53;9.80;99.90
48728;DHT22;34527;45.618;5.130;2022-12-29T18:07:20;9.90;99.90
48728;DHT22;34527;45.618;5.130;2022-12-29T18:09:46;9.80;99.90
48728;DHT22;34527;45.618;5.130;2022-12-29T18:12:28;9.80;99.90
48728;DHT22;34527;45.618;5.130;2022-12-29T18:14:54;9.80;99.90
48728;DHT22;34527;45.618;5.130;2022-12-29T18:17:20;9.90;99.90
48728;DHT22;34527;45.618;5.130;2022-12-29T18:19:46;9.90;99.90
48728;DHT22;34527;45.618;5.130;2022-12-29T18:22:12;9.80;99.90
48728;DHT22;34527;45.618;5.130;2022-12-29T18:24:38;9.90;99.90